sensor_id;sensor_type;location;lat;lon;timestamp;P1;durP1;ratioP1;P2;durP2;ratioP2
40176;SDS011;31511;46.176;9.874;2022-07-23T00:02:08;10.13;;;7.15;;
40176;SDS011;31511;46.176;9.874;2022-07-23T00:04:53;9.27;;;7.30;;
40176;SDS011;31511;46.176;9.874;2022-07-23T00:07:38;10.85;;;7.60;;
40176;SDS011;31511;46.176;9.874;2022-07-23T00:10:24;9.23;;;6.95;;
40176;SDS011;31511;46.176;9.874;2022-07-23T00:13:11;9.35;;;6.95;;
40176;SDS011;31511;46.176;9.874;2022-07-23T00:15:56;11.80;;;7.28;;
40176;SDS011;31511;46.176;9.874;2022-07-23T00:18:41;10.13;;;7.38;;
40176;SDS011;31511;46.176;9.874;2022-07-23T00:21:27;7.90;;;6.80;;
40176;SDS011;31511;46.176;9.874;2022-07-23T00:24:14;7.72;;;6.95;;
40176;SDS011;31511;46.176;9.874;2022-07-23T00:26:59;10.85;;;7.00;;
40176;SDS011;31511;46.176;9.874;2022-07-23T00:29:43;7.70;;;6.82;;
40176;SDS011;31511;46.176;9.874;2022-07-23T00:32:29;8.63;;;7.07;;
40176;SDS011;31511;46.176;9.874;2022-07-23T00:35:14;14.23;;;7.07;;
40176;SDS011;31511;46.176;9.874;2022-07-23T00:38:00;7.68;;;6.80;;
40176;SDS011;31511;46.176;9.874;2022-07-23T00:40:45;10.00;;;7.55;;
40176;SDS011;31511;46.176;9.874;2022-07-23T00:43:30;8.38;;;6.57;;
40176;SDS011;31511;46.176;9.874;2022-07-23T00:46:19;8.25;;;6.32;;
40176;SDS011;31511;46.176;9.874;2022-07-23T00:49:04;8.18;;;6.40;;
40176;SDS011;31511;46.176;9.874;2022-07-23T00:51:50;7.88;;;7.07;;
40176;SDS011;31511;46.176;9.874;2022-07-23T00:54:35;8.13;;;7.32;;
40176;SDS011;31511;46.176;9.874;2022-07-23T00:57:21;10.55;;;6.70;;
40176;SDS011;31511;46.176;9.874;2022-07-23T01:00:09;9.77;;;7.40;;
40176;SDS011;31511;46.176;9.874;2022-07-23T01:02:54;8.65;;;6.60;;
40176;SDS011;31511;46.176;9.874;2022-07-23T01:05:39;9.45;;;7.43;;
40176;SDS011;31511;46.176;9.874;2022-07-23T01:08:25;10.75;;;7.80;;
40176;SDS011;31511;46.176;9.874;2022-07-23T01:11:11;9.00;;;6.95;;
40176;SDS011;31511;46.176;9.874;2022-07-23T01:13:57;9.10;;;7.50;;
40176;SDS011;31511;46.176;9.874;2022-07-23T01:16:42;11.05;;;7.22;;
40176;SDS011;31511;46.176;9.874;2022-07-23T01:19:29;9.27;;;6.85;;
40176;SDS011;31511;46.176;9.874;2022-07-23T01:22:15;10.55;;;7.43;;
40176;SDS011;31511;46.176;9.874;2022-07-23T01:25:02;9.80;;;6.68;;
40176;SDS011;31511;46.176;9.874;2022-07-23T01:27:47;10.10;;;7.40;;
40176;SDS011;31511;46.176;9.874;2022-07-23T01:33:29;8.60;;;6.53;;
40176;SDS011;31511;46.176;9.874;2022-07-23T01:36:14;9.02;;;6.65;;
40176;SDS011;31511;46.176;9.874;2022-07-23T01:39:00;10.43;;;7.20;;
40176;SDS011;31511;46.176;9.874;2022-07-23T01:41:45;8.50;;;7.13;;
40176;SDS011;31511;46.176;9.874;2022-07-23T01:44:30;8.95;;;6.82;;
40176;SDS011;31511;46.176;9.874;2022-07-23T01:47:15;12.18;;;4.45;;
40176;SDS011;31511;46.176;9.874;2022-07-23T01:50:00;12.73;;;3.63;;
40176;SDS011;31511;46.176;9.874;2022-07-23T01:52:45;13.13;;;3.30;;
40176;SDS011;31511;46.176;9.874;2022-07-23T01:55:30;11.18;;;2.65;;
40176;SDS011;31511;46.176;9.874;2022-07-23T01:58:15;7.78;;;2.17;;
40176;SDS011;31511;46.176;9.874;2022-07-23T02:01:00;7.47;;;2.60;;
40176;SDS011;31511;46.176;9.874;2022-07-23T02:03:45;7.85;;;3.13;;
40176;SDS011;31511;46.176;9.874;2022-07-23T02:06:29;4.80;;;2.15;;
40176;SDS011;31511;46.176;9.874;2022-07-23T02:09:14;14.75;;;3.53;;
40176;SDS011;31511;46.176;9.874;2022-07-23T02:12:00;7.70;;;3.03;;
40176;SDS011;31511;46.176;9.874;2022-07-23T02:14:45;7.75;;;3.05;;
40176;SDS011;31511;46.176;9.874;2022-07-23T02:17:30;9.07;;;2.70;;
40176;SDS011;31511;46.176;9.874;2022-07-23T02:20:15;4.65;;;1.92;;
40176;SDS011;31511;46.176;9.874;2022-07-23T02:23:00;2.97;;;2.10;;
40176;SDS011;31511;46.176;9.874;2022-07-23T02:25:44;5.68;;;2.45;;
40176;SDS011;31511;46.176;9.874;2022-07-23T02:28:29;6.20;;;2.85;;
40176;SDS011;31511;46.176;9.874;2022-07-23T02:31:15;5.60;;;2.58;;
40176;SDS011;31511;46.176;9.874;2022-07-23T02:33:59;5.90;;;2.88;;
40176;SDS011;31511;46.176;9.874;2022-07-23T02:36:44;4.50;;;2.92;;
40176;SDS011;31511;46.176;9.874;2022-07-23T02:39:30;4.82;;;3.33;;
40176;SDS011;31511;46.176;9.874;2022-07-23T02:42:14;5.22;;;3.33;;
40176;SDS011;31511;46.176;9.874;2022-07-23T02:44:59;5.38;;;2.58;;
40176;SDS011;31511;46.176;9.874;2022-07-23T02:47:43;4.55;;;2.33;;
40176;SDS011;31511;46.176;9.874;2022-07-23T02:50:29;4.68;;;2.30;;
40176;SDS011;31511;46.176;9.874;2022-07-23T02:53:14;4.82;;;1.85;;
40176;SDS011;31511;46.176;9.874;2022-07-23T02:55:58;4.53;;;2.17;;
40176;SDS011;31511;46.176;9.874;2022-07-23T02:58:43;2.78;;;1.85;;
40176;SDS011;31511;46.176;9.874;2022-07-23T03:01:28;3.75;;;2.35;;
40176;SDS011;31511;46.176;9.874;2022-07-23T03:04:13;11.02;;;3.40;;
40176;SDS011;31511;46.176;9.874;2022-07-23T03:06:58;4.88;;;2.78;;
40176;SDS011;31511;46.176;9.874;2022-07-23T03:09:42;4.93;;;2.42;;
40176;SDS011;31511;46.176;9.874;2022-07-23T03:12:29;2.70;;;1.90;;
40176;SDS011;31511;46.176;9.874;2022-07-23T03:15:14;3.70;;;2.60;;
40176;SDS011;31511;46.176;9.874;2022-07-23T03:17:59;4.90;;;2.65;;
40176;SDS011;31511;46.176;9.874;2022-07-23T03:20:44;10.25;;;3.40;;
40176;SDS011;31511;46.176;9.874;2022-07-23T03:23:30;6.07;;;2.78;;
40176;SDS011;31511;46.176;9.874;2022-07-23T03:26:15;5.93;;;2.70;;
40176;SDS011;31511;46.176;9.874;2022-07-23T03:28:59;7.65;;;2.92;;
40176;SDS011;31511;46.176;9.874;2022-07-23T03:31:45;3.58;;;2.40;;
40176;SDS011;31511;46.176;9.874;2022-07-23T03:34:30;4.30;;;2.15;;
40176;SDS011;31511;46.176;9.874;2022-07-23T03:37:16;5.28;;;2.00;;
40176;SDS011;31511;46.176;9.874;2022-07-23T03:40:00;4.88;;;2.00;;
40176;SDS011;31511;46.176;9.874;2022-07-23T03:42:45;3.72;;;1.90;;
40176;SDS011;31511;46.176;9.874;2022-07-23T03:45:31;2.88;;;2.20;;
40176;SDS011;31511;46.176;9.874;2022-07-23T03:48:16;5.38;;;2.25;;
40176;SDS011;31511;46.176;9.874;2022-07-23T03:51:01;3.85;;;1.60;;
40176;SDS011;31511;46.176;9.874;2022-07-23T03:53:46;6.88;;;2.33;;
40176;SDS011;31511;46.176;9.874;2022-07-23T03:56:32;3.85;;;2.05;;
40176;SDS011;31511;46.176;9.874;2022-07-23T03:59:17;2.70;;;2.20;;
40176;SDS011;31511;46.176;9.874;2022-07-23T04:02:02;2.78;;;2.20;;
40176;SDS011;31511;46.176;9.874;2022-07-23T04:04:47;1.75;;;1.50;;
40176;SDS011;31511;46.176;9.874;2022-07-23T04:07:32;3.47;;;1.90;;
40176;SDS011;31511;46.176;9.874;2022-07-23T04:10:17;6.70;;;2.42;;
40176;SDS011;31511;46.176;9.874;2022-07-23T04:13:01;10.45;;;3.75;;
40176;SDS011;31511;46.176;9.874;2022-07-23T04:15:46;2.28;;;1.50;;
40176;SDS011;31511;46.176;9.874;2022-07-23T04:18:30;3.00;;;2.17;;
40176;SDS011;31511;46.176;9.874;2022-07-23T04:21:15;5.45;;;1.80;;
40176;SDS011;31511;46.176;9.874;2022-07-23T04:23:59;3.42;;;2.10;;
40176;SDS011;31511;46.176;9.874;2022-07-23T04:26:44;5.10;;;2.33;;
40176;SDS011;31511;46.176;9.874;2022-07-23T04:29:31;4.35;;;2.33;;
40176;SDS011;31511;46.176;9.874;2022-07-23T04:32:16;2.55;;;1.92;;
40176;SDS011;31511;46.176;9.874;2022-07-23T04:35:00;3.30;;;2.08;;
40176;SDS011;31511;46.176;9.874;2022-07-23T04:37:46;4.85;;;2.33;;
40176;SDS011;31511;46.176;9.874;2022-07-23T04:40:30;6.07;;;2.53;;
40176;SDS011;31511;46.176;9.874;2022-07-23T04:43:15;3.60;;;2.40;;
40176;SDS011;31511;46.176;9.874;2022-07-23T04:45:59;4.90;;;2.58;;
40176;SDS011;31511;46.176;9.874;2022-07-23T04:48:44;4.05;;;2.55;;
40176;SDS011;31511;46.176;9.874;2022-07-23T04:51:30;5.20;;;2.53;;
40176;SDS011;31511;46.176;9.874;2022-07-23T04:54:14;2.75;;;2.13;;
40176;SDS011;31511;46.176;9.874;2022-07-23T04:57:01;3.88;;;2.45;;
40176;SDS011;31511;46.176;9.874;2022-07-23T04:59:45;3.60;;;2.40;;
40176;SDS011;31511;46.176;9.874;2022-07-23T05:02:30;4.15;;;2.55;;
40176;SDS011;31511;46.176;9.874;2022-07-23T05:05:15;4.75;;;2.53;;
40176;SDS011;31511;46.176;9.874;2022-07-23T05:08:00;4.65;;;2.10;;
40176;SDS011;31511;46.176;9.874;2022-07-23T05:10:44;2.83;;;2.00;;
40176;SDS011;31511;46.176;9.874;2022-07-23T05:13:31;7.18;;;2.35;;
40176;SDS011;31511;46.176;9.874;2022-07-23T05:16:15;5.15;;;2.88;;
40176;SDS011;31511;46.176;9.874;2022-07-23T05:19:00;2.50;;;2.03;;
40176;SDS011;31511;46.176;9.874;2022-07-23T05:21:45;3.13;;;2.00;;
40176;SDS011;31511;46.176;9.874;2022-07-23T05:24:31;2.40;;;2.05;;
40176;SDS011;31511;46.176;9.874;2022-07-23T05:27:15;3.47;;;2.40;;
40176;SDS011;31511;46.176;9.874;2022-07-23T05:30:00;3.90;;;2.50;;
40176;SDS011;31511;46.176;9.874;2022-07-23T05:32:44;3.95;;;1.98;;
40176;SDS011;31511;46.176;9.874;2022-07-23T05:35:30;5.60;;;2.90;;
40176;SDS011;31511;46.176;9.874;2022-07-23T05:38:14;5.70;;;2.35;;
40176;SDS011;31511;46.176;9.874;2022-07-23T05:40:59;4.95;;;2.50;;
40176;SDS011;31511;46.176;9.874;2022-07-23T05:43:44;4.88;;;2.38;;
40176;SDS011;31511;46.176;9.874;2022-07-23T05:46:30;4.40;;;2.75;;
40176;SDS011;31511;46.176;9.874;2022-07-23T05:49:14;3.25;;;2.55;;
40176;SDS011;31511;46.176;9.874;2022-07-23T05:52:03;3.67;;;2.15;;
40176;SDS011;31511;46.176;9.874;2022-07-23T05:54:47;4.28;;;2.30;;
40176;SDS011;31511;46.176;9.874;2022-07-23T05:57:32;3.17;;;2.40;;
40176;SDS011;31511;46.176;9.874;2022-07-23T06:00:17;3.35;;;2.15;;
40176;SDS011;31511;46.176;9.874;2022-07-23T06:03:02;3.70;;;2.63;;
40176;SDS011;31511;46.176;9.874;2022-07-23T06:05:46;3.25;;;2.05;;
40176;SDS011;31511;46.176;9.874;2022-07-23T06:08:31;5.90;;;2.85;;
40176;SDS011;31511;46.176;9.874;2022-07-23T06:11:16;3.20;;;2.30;;
40176;SDS011;31511;46.176;9.874;2022-07-23T06:14:01;4.68;;;2.53;;
40176;SDS011;31511;46.176;9.874;2022-07-23T06:16:46;2.50;;;1.95;;
40176;SDS011;31511;46.176;9.874;2022-07-23T06:19:31;3.47;;;1.98;;
40176;SDS011;31511;46.176;9.874;2022-07-23T06:22:16;5.88;;;1.83;;
40176;SDS011;31511;46.176;9.874;2022-07-23T06:25:00;5.43;;;2.35;;
40176;SDS011;31511;46.176;9.874;2022-07-23T06:27:46;3.67;;;2.67;;
40176;SDS011;31511;46.176;9.874;2022-07-23T06:30:31;5.10;;;2.47;;
40176;SDS011;31511;46.176;9.874;2022-07-23T06:33:15;5.60;;;2.40;;
40176;SDS011;31511;46.176;9.874;2022-07-23T06:36:00;6.03;;;2.45;;
40176;SDS011;31511;46.176;9.874;2022-07-23T06:38:44;5.85;;;2.83;;
40176;SDS011;31511;46.176;9.874;2022-07-23T06:41:30;7.47;;;2.40;;
40176;SDS011;31511;46.176;9.874;2022-07-23T06:44:15;5.72;;;2.70;;
40176;SDS011;31511;46.176;9.874;2022-07-23T06:46:59;3.25;;;2.28;;
40176;SDS011;31511;46.176;9.874;2022-07-23T06:49:44;3.15;;;2.83;;
40176;SDS011;31511;46.176;9.874;2022-07-23T06:52:30;3.30;;;2.33;;
40176;SDS011;31511;46.176;9.874;2022-07-23T06:55:14;5.40;;;2.70;;
40176;SDS011;31511;46.176;9.874;2022-07-23T06:57:59;4.80;;;2.70;;
40176;SDS011;31511;46.176;9.874;2022-07-23T07:00:43;5.90;;;2.25;;
40176;SDS011;31511;46.176;9.874;2022-07-23T07:03:30;4.70;;;2.33;;
40176;SDS011;31511;46.176;9.874;2022-07-23T07:06:15;3.83;;;2.72;;
40176;SDS011;31511;46.176;9.874;2022-07-23T07:09:01;5.18;;;2.20;;
40176;SDS011;31511;46.176;9.874;2022-07-23T07:11:45;5.18;;;2.63;;
40176;SDS011;31511;46.176;9.874;2022-07-23T07:14:31;3.50;;;2.47;;
40176;SDS011;31511;46.176;9.874;2022-07-23T07:17:16;5.03;;;3.00;;
40176;SDS011;31511;46.176;9.874;2022-07-23T07:20:02;4.28;;;2.88;;
40176;SDS011;31511;46.176;9.874;2022-07-23T07:22:47;3.67;;;2.67;;
40176;SDS011;31511;46.176;9.874;2022-07-23T07:25:31;5.93;;;2.83;;
40176;SDS011;31511;46.176;9.874;2022-07-23T07:28:16;4.43;;;2.22;;
40176;SDS011;31511;46.176;9.874;2022-07-23T07:31:02;8.18;;;2.35;;
40176;SDS011;31511;46.176;9.874;2022-07-23T07:33:46;6.25;;;2.60;;
40176;SDS011;31511;46.176;9.874;2022-07-23T07:36:32;3.58;;;2.70;;
40176;SDS011;31511;46.176;9.874;2022-07-23T07:39:17;3.33;;;2.25;;
40176;SDS011;31511;46.176;9.874;2022-07-23T07:42:01;3.83;;;2.45;;
40176;SDS011;31511;46.176;9.874;2022-07-23T07:44:46;2.90;;;2.10;;
40176;SDS011;31511;46.176;9.874;2022-07-23T07:47:31;3.95;;;2.38;;
40176;SDS011;31511;46.176;9.874;2022-07-23T07:50:16;3.33;;;2.65;;
40176;SDS011;31511;46.176;9.874;2022-07-23T07:53:00;4.07;;;2.30;;
40176;SDS011;31511;46.176;9.874;2022-07-23T07:55:45;4.03;;;2.22;;
40176;SDS011;31511;46.176;9.874;2022-07-23T07:58:29;3.75;;;2.65;;
40176;SDS011;31511;46.176;9.874;2022-07-23T08:01:14;4.20;;;2.25;;
40176;SDS011;31511;46.176;9.874;2022-07-23T08:03:59;2.85;;;2.50;;
40176;SDS011;31511;46.176;9.874;2022-07-23T08:06:43;2.70;;;2.30;;
40176;SDS011;31511;46.176;9.874;2022-07-23T08:09:30;4.95;;;2.63;;
40176;SDS011;31511;46.176;9.874;2022-07-23T08:12:15;2.47;;;2.13;;
40176;SDS011;31511;46.176;9.874;2022-07-23T08:15:00;4.18;;;2.65;;
40176;SDS011;31511;46.176;9.874;2022-07-23T08:17:45;2.80;;;2.15;;
40176;SDS011;31511;46.176;9.874;2022-07-23T08:20:30;5.05;;;2.28;;
40176;SDS011;31511;46.176;9.874;2022-07-23T08:23:17;3.05;;;2.20;;
40176;SDS011;31511;46.176;9.874;2022-07-23T08:26:03;3.28;;;2.10;;
40176;SDS011;31511;46.176;9.874;2022-07-23T08:28:47;2.45;;;2.00;;
40176;SDS011;31511;46.176;9.874;2022-07-23T08:31:32;2.80;;;2.17;;
40176;SDS011;31511;46.176;9.874;2022-07-23T08:34:16;2.42;;;1.92;;
40176;SDS011;31511;46.176;9.874;2022-07-23T08:37:03;2.30;;;2.10;;
40176;SDS011;31511;46.176;9.874;2022-07-23T08:39:47;4.05;;;2.28;;
40176;SDS011;31511;46.176;9.874;2022-07-23T08:42:32;2.20;;;1.95;;
40176;SDS011;31511;46.176;9.874;2022-07-23T08:45:23;3.35;;;2.22;;
40176;SDS011;31511;46.176;9.874;2022-07-23T08:48:14;4.40;;;1.88;;
40176;SDS011;31511;46.176;9.874;2022-07-23T08:50:59;3.42;;;2.97;;
40176;SDS011;31511;46.176;9.874;2022-07-23T08:53:44;4.57;;;1.80;;
40176;SDS011;31511;46.176;9.874;2022-07-23T08:56:30;4.38;;;1.95;;
40176;SDS011;31511;46.176;9.874;2022-07-23T08:59:14;2.90;;;2.30;;
40176;SDS011;31511;46.176;9.874;2022-07-23T09:01:59;3.72;;;2.08;;
40176;SDS011;31511;46.176;9.874;2022-07-23T09:04:44;3.67;;;1.98;;
40176;SDS011;31511;46.176;9.874;2022-07-23T09:07:30;2.97;;;1.95;;
40176;SDS011;31511;46.176;9.874;2022-07-23T09:10:15;3.42;;;1.63;;
40176;SDS011;31511;46.176;9.874;2022-07-23T09:13:00;3.47;;;2.13;;
40176;SDS011;31511;46.176;9.874;2022-07-23T09:15:48;3.17;;;1.63;;
40176;SDS011;31511;46.176;9.874;2022-07-23T09:18:34;1.95;;;1.75;;
40176;SDS011;31511;46.176;9.874;2022-07-23T09:21:27;2.63;;;1.65;;
40176;SDS011;31511;46.176;9.874;2022-07-23T09:24:14;2.58;;;1.85;;
40176;SDS011;31511;46.176;9.874;2022-07-23T09:26:59;2.88;;;1.55;;
40176;SDS011;31511;46.176;9.874;2022-07-23T09:29:54;2.70;;;1.95;;
40176;SDS011;31511;46.176;9.874;2022-07-23T09:32:39;1.90;;;1.70;;
40176;SDS011;31511;46.176;9.874;2022-07-23T09:35:42;2.30;;;1.50;;
40176;SDS011;31511;46.176;9.874;2022-07-23T09:38:29;4.35;;;1.90;;
40176;SDS011;31511;46.176;9.874;2022-07-23T09:41:13;4.15;;;1.90;;
40176;SDS011;31511;46.176;9.874;2022-07-23T09:43:59;1.88;;;1.52;;
40176;SDS011;31511;46.176;9.874;2022-07-23T09:46:52;2.40;;;1.85;;
40176;SDS011;31511;46.176;9.874;2022-07-23T09:49:57;3.42;;;2.50;;
40176;SDS011;31511;46.176;9.874;2022-07-23T09:55:36;2.70;;;2.03;;
40176;SDS011;31511;46.176;9.874;2022-07-23T09:58:23;3.90;;;1.88;;
40176;SDS011;31511;46.176;9.874;2022-07-23T10:01:10;2.13;;;1.73;;
40176;SDS011;31511;46.176;9.874;2022-07-23T10:03:55;3.38;;;2.17;;
40176;SDS011;31511;46.176;9.874;2022-07-23T10:06:40;1.80;;;1.60;;
40176;SDS011;31511;46.176;9.874;2022-07-23T10:09:31;2.97;;;2.38;;
40176;SDS011;31511;46.176;9.874;2022-07-23T10:12:16;2.13;;;1.70;;
40176;SDS011;31511;46.176;9.874;2022-07-23T10:15:31;3.65;;;2.10;;
40176;SDS011;31511;46.176;9.874;2022-07-23T10:18:16;4.10;;;2.10;;
40176;SDS011;31511;46.176;9.874;2022-07-23T10:21:00;1.67;;;1.55;;
40176;SDS011;31511;46.176;9.874;2022-07-23T10:23:56;4.53;;;2.17;;
40176;SDS011;31511;46.176;9.874;2022-07-23T10:29:47;2.50;;;2.17;;
40176;SDS011;31511;46.176;9.874;2022-07-23T10:35:43;2.35;;;2.15;;
40176;SDS011;31511;46.176;9.874;2022-07-23T10:38:33;2.85;;;1.98;;
40176;SDS011;31511;46.176;9.874;2022-07-23T10:41:34;2.13;;;1.83;;
40176;SDS011;31511;46.176;9.874;2022-07-23T10:44:21;4.07;;;2.25;;
40176;SDS011;31511;46.176;9.874;2022-07-23T10:47:09;2.75;;;1.85;;
40176;SDS011;31511;46.176;9.874;2022-07-23T10:50:16;2.33;;;1.80;;
40176;SDS011;31511;46.176;9.874;2022-07-23T10:55:59;2.72;;;1.75;;
40176;SDS011;31511;46.176;9.874;2022-07-23T10:58:49;2.88;;;1.83;;
40176;SDS011;31511;46.176;9.874;2022-07-23T11:01:38;2.60;;;1.90;;
40176;SDS011;31511;46.176;9.874;2022-07-23T11:04:47;2.95;;;2.20;;
40176;SDS011;31511;46.176;9.874;2022-07-23T11:07:29;2.90;;;2.08;;
40176;SDS011;31511;46.176;9.874;2022-07-23T11:10:31;2.40;;;1.67;;
40176;SDS011;31511;46.176;9.874;2022-07-23T11:13:25;2.45;;;2.25;;
40176;SDS011;31511;46.176;9.874;2022-07-23T11:16:14;2.45;;;1.83;;
40176;SDS011;31511;46.176;9.874;2022-07-23T11:19:02;3.47;;;1.80;;
40176;SDS011;31511;46.176;9.874;2022-07-23T11:21:48;2.75;;;1.60;;
40176;SDS011;31511;46.176;9.874;2022-07-23T11:24:33;1.67;;;1.55;;
40176;SDS011;31511;46.176;9.874;2022-07-23T11:36:01;1.60;;;1.50;;
40176;SDS011;31511;46.176;9.874;2022-07-23T11:38:46;5.55;;;1.92;;
40176;SDS011;31511;46.176;9.874;2022-07-23T11:41:43;2.22;;;1.80;;
40176;SDS011;31511;46.176;9.874;2022-07-23T11:44:30;2.65;;;1.90;;
40176;SDS011;31511;46.176;9.874;2022-07-23T11:47:20;2.40;;;1.95;;
40176;SDS011;31511;46.176;9.874;2022-07-23T11:50:07;2.30;;;2.10;;
40176;SDS011;31511;46.176;9.874;2022-07-23T11:52:52;2.25;;;1.55;;
40176;SDS011;31511;46.176;9.874;2022-07-23T11:55:37;2.75;;;1.88;;
40176;SDS011;31511;46.176;9.874;2022-07-23T11:58:23;3.78;;;2.20;;
40176;SDS011;31511;46.176;9.874;2022-07-23T12:01:10;2.88;;;2.10;;
40176;SDS011;31511;46.176;9.874;2022-07-23T12:03:54;2.40;;;1.98;;
40176;SDS011;31511;46.176;9.874;2022-07-23T12:06:39;3.67;;;1.90;;
40176;SDS011;31511;46.176;9.874;2022-07-23T12:09:25;3.97;;;2.03;;
40176;SDS011;31511;46.176;9.874;2022-07-23T12:12:12;2.45;;;1.42;;
40176;SDS011;31511;46.176;9.874;2022-07-23T12:14:58;4.30;;;1.85;;
40176;SDS011;31511;46.176;9.874;2022-07-23T12:17:43;2.25;;;1.67;;
40176;SDS011;31511;46.176;9.874;2022-07-23T12:20:31;4.88;;;2.17;;
40176;SDS011;31511;46.176;9.874;2022-07-23T12:23:16;4.80;;;2.13;;
40176;SDS011;31511;46.176;9.874;2022-07-23T12:26:02;3.38;;;1.85;;
40176;SDS011;31511;46.176;9.874;2022-07-23T12:28:51;4.15;;;1.90;;
40176;SDS011;31511;46.176;9.874;2022-07-23T12:31:36;2.13;;;1.92;;
40176;SDS011;31511;46.176;9.874;2022-07-23T12:34:24;3.47;;;2.45;;
40176;SDS011;31511;46.176;9.874;2022-07-23T12:37:30;4.22;;;1.98;;
40176;SDS011;31511;46.176;9.874;2022-07-23T12:40:23;2.05;;;1.85;;
40176;SDS011;31511;46.176;9.874;2022-07-23T12:43:21;3.33;;;2.40;;
40176;SDS011;31511;46.176;9.874;2022-07-23T12:46:18;3.13;;;2.50;;
40176;SDS011;31511;46.176;9.874;2022-07-23T12:49:05;3.13;;;2.10;;
40176;SDS011;31511;46.176;9.874;2022-07-23T12:51:50;2.63;;;1.83;;
40176;SDS011;31511;46.176;9.874;2022-07-23T12:54:34;2.78;;;2.50;;
40176;SDS011;31511;46.176;9.874;2022-07-23T12:57:44;2.22;;;1.83;;
40176;SDS011;31511;46.176;9.874;2022-07-23T13:00:24;3.75;;;2.15;;
40176;SDS011;31511;46.176;9.874;2022-07-23T13:03:19;2.38;;;2.08;;
40176;SDS011;31511;46.176;9.874;2022-07-23T13:06:05;2.75;;;2.13;;
40176;SDS011;31511;46.176;9.874;2022-07-23T13:08:51;3.55;;;2.28;;
40176;SDS011;31511;46.176;9.874;2022-07-23T13:11:36;5.30;;;2.53;;
40176;SDS011;31511;46.176;9.874;2022-07-23T13:14:23;4.15;;;3.05;;
40176;SDS011;31511;46.176;9.874;2022-07-23T13:17:10;4.07;;;2.35;;
40176;SDS011;31511;46.176;9.874;2022-07-23T13:19:55;2.60;;;2.40;;
40176;SDS011;31511;46.176;9.874;2022-07-23T13:22:40;2.58;;;2.30;;
40176;SDS011;31511;46.176;9.874;2022-07-23T13:25:26;2.58;;;2.13;;
40176;SDS011;31511;46.176;9.874;2022-07-23T13:28:13;3.40;;;2.60;;
40176;SDS011;31511;46.176;9.874;2022-07-23T13:30:59;3.22;;;2.17;;
40176;SDS011;31511;46.176;9.874;2022-07-23T13:33:44;2.67;;;2.10;;
40176;SDS011;31511;46.176;9.874;2022-07-23T13:36:30;5.68;;;2.55;;
40176;SDS011;31511;46.176;9.874;2022-07-23T13:39:15;5.32;;;2.40;;
40176;SDS011;31511;46.176;9.874;2022-07-23T13:41:59;5.10;;;2.63;;
40176;SDS011;31511;46.176;9.874;2022-07-23T13:44:44;2.88;;;2.40;;
40176;SDS011;31511;46.176;9.874;2022-07-23T13:47:30;6.85;;;3.47;;
40176;SDS011;31511;46.176;9.874;2022-07-23T13:50:15;8.93;;;3.08;;
40176;SDS011;31511;46.176;9.874;2022-07-23T13:53:01;2.95;;;2.50;;
40176;SDS011;31511;46.176;9.874;2022-07-23T13:55:47;6.57;;;2.55;;
40176;SDS011;31511;46.176;9.874;2022-07-23T13:58:32;3.78;;;2.67;;
40176;SDS011;31511;46.176;9.874;2022-07-23T14:01:16;4.60;;;2.55;;
40176;SDS011;31511;46.176;9.874;2022-07-23T14:04:01;6.18;;;3.00;;
40176;SDS011;31511;46.176;9.874;2022-07-23T14:06:46;2.63;;;2.40;;
40176;SDS011;31511;46.176;9.874;2022-07-23T14:09:31;3.78;;;2.70;;
40176;SDS011;31511;46.176;9.874;2022-07-23T14:12:17;5.20;;;3.17;;
40176;SDS011;31511;46.176;9.874;2022-07-23T14:15:02;5.85;;;3.10;;
40176;SDS011;31511;46.176;9.874;2022-07-23T14:17:46;5.20;;;3.10;;
40176;SDS011;31511;46.176;9.874;2022-07-23T14:20:31;4.43;;;3.47;;
40176;SDS011;31511;46.176;9.874;2022-07-23T14:23:16;5.38;;;3.00;;
40176;SDS011;31511;46.176;9.874;2022-07-23T14:26:01;4.10;;;3.58;;
40176;SDS011;31511;46.176;9.874;2022-07-23T14:28:45;3.65;;;2.90;;
40176;SDS011;31511;46.176;9.874;2022-07-23T14:31:31;4.13;;;3.17;;
40176;SDS011;31511;46.176;9.874;2022-07-23T14:34:16;5.40;;;3.35;;
40176;SDS011;31511;46.176;9.874;2022-07-23T14:37:01;6.15;;;3.38;;
40176;SDS011;31511;46.176;9.874;2022-07-23T14:39:46;4.22;;;3.65;;
40176;SDS011;31511;46.176;9.874;2022-07-23T14:42:31;4.00;;;3.25;;
40176;SDS011;31511;46.176;9.874;2022-07-23T14:45:16;4.97;;;3.00;;
40176;SDS011;31511;46.176;9.874;2022-07-23T14:48:00;5.53;;;3.42;;
40176;SDS011;31511;46.176;9.874;2022-07-23T14:50:46;5.75;;;3.80;;
40176;SDS011;31511;46.176;9.874;2022-07-23T14:53:31;6.95;;;3.35;;
40176;SDS011;31511;46.176;9.874;2022-07-23T14:56:15;6.47;;;3.70;;
40176;SDS011;31511;46.176;9.874;2022-07-23T14:59:00;7.72;;;3.90;;
40176;SDS011;31511;46.176;9.874;2022-07-23T15:01:45;6.82;;;3.72;;
40176;SDS011;31511;46.176;9.874;2022-07-23T15:04:30;7.13;;;4.13;;
40176;SDS011;31511;46.176;9.874;2022-07-23T15:07:16;4.25;;;3.70;;
40176;SDS011;31511;46.176;9.874;2022-07-23T15:10:00;5.25;;;3.67;;
40176;SDS011;31511;46.176;9.874;2022-07-23T15:12:45;8.70;;;3.95;;
40176;SDS011;31511;46.176;9.874;2022-07-23T15:15:30;3.58;;;3.28;;
40176;SDS011;31511;46.176;9.874;2022-07-23T15:18:15;4.60;;;3.63;;
40176;SDS011;31511;46.176;9.874;2022-07-23T15:21:01;3.90;;;3.50;;
40176;SDS011;31511;46.176;9.874;2022-07-23T15:23:46;5.70;;;3.70;;
40176;SDS011;31511;46.176;9.874;2022-07-23T15:26:32;5.68;;;4.20;;
40176;SDS011;31511;46.176;9.874;2022-07-23T15:29:16;6.47;;;3.80;;
40176;SDS011;31511;46.176;9.874;2022-07-23T15:32:03;6.50;;;4.55;;
40176;SDS011;31511;46.176;9.874;2022-07-23T15:34:47;5.47;;;3.63;;
40176;SDS011;31511;46.176;9.874;2022-07-23T15:37:32;10.77;;;4.03;;
40176;SDS011;31511;46.176;9.874;2022-07-23T15:40:18;5.53;;;3.95;;
40176;SDS011;31511;46.176;9.874;2022-07-23T15:43:04;8.88;;;4.43;;
40176;SDS011;31511;46.176;9.874;2022-07-23T15:45:50;4.90;;;4.32;;
40176;SDS011;31511;46.176;9.874;2022-07-23T15:48:35;9.15;;;5.60;;
40176;SDS011;31511;46.176;9.874;2022-07-23T15:51:21;7.18;;;5.32;;
40176;SDS011;31511;46.176;9.874;2022-07-23T15:54:08;11.35;;;4.55;;
40176;SDS011;31511;46.176;9.874;2022-07-23T15:56:53;5.85;;;4.63;;
40176;SDS011;31511;46.176;9.874;2022-07-23T15:59:38;7.85;;;5.10;;
40176;SDS011;31511;46.176;9.874;2022-07-23T16:02:23;6.47;;;4.45;;
40176;SDS011;31511;46.176;9.874;2022-07-23T16:05:08;9.48;;;4.22;;
40176;SDS011;31511;46.176;9.874;2022-07-23T16:07:52;4.70;;;4.25;;
40176;SDS011;31511;46.176;9.874;2022-07-23T16:10:37;5.15;;;4.40;;
40176;SDS011;31511;46.176;9.874;2022-07-23T16:13:24;5.25;;;3.90;;
40176;SDS011;31511;46.176;9.874;2022-07-23T16:16:12;7.53;;;5.20;;
40176;SDS011;31511;46.176;9.874;2022-07-23T16:18:57;5.35;;;4.45;;
40176;SDS011;31511;46.176;9.874;2022-07-23T16:21:42;5.15;;;4.13;;
40176;SDS011;31511;46.176;9.874;2022-07-23T16:24:28;7.05;;;4.75;;
40176;SDS011;31511;46.176;9.874;2022-07-23T16:27:13;7.10;;;4.57;;
40176;SDS011;31511;46.176;9.874;2022-07-23T16:29:59;10.93;;;5.25;;
40176;SDS011;31511;46.176;9.874;2022-07-23T16:32:43;7.88;;;4.07;;
40176;SDS011;31511;46.176;9.874;2022-07-23T16:35:29;6.93;;;4.90;;
40176;SDS011;31511;46.176;9.874;2022-07-23T16:38:14;6.88;;;4.80;;
40176;SDS011;31511;46.176;9.874;2022-07-23T16:40:59;5.28;;;3.97;;
40176;SDS011;31511;46.176;9.874;2022-07-23T16:43:44;7.18;;;3.92;;
40176;SDS011;31511;46.176;9.874;2022-07-23T16:46:30;6.88;;;4.35;;
40176;SDS011;31511;46.176;9.874;2022-07-23T16:49:16;5.38;;;4.50;;
40176;SDS011;31511;46.176;9.874;2022-07-23T16:52:02;6.85;;;5.07;;
40176;SDS011;31511;46.176;9.874;2022-07-23T16:54:47;7.57;;;4.90;;
40176;SDS011;31511;46.176;9.874;2022-07-23T16:57:32;7.60;;;5.53;;
40176;SDS011;31511;46.176;9.874;2022-07-23T17:00:17;5.88;;;4.43;;
40176;SDS011;31511;46.176;9.874;2022-07-23T17:03:02;6.68;;;4.88;;
40176;SDS011;31511;46.176;9.874;2022-07-23T17:05:47;8.75;;;4.78;;